createdAt,value
2023-02-15T00:00:26.649Z,90.72
2023-02-15T00:02:54.304Z,89.50
2023-02-15T00:05:22.258Z,90.82
2023-02-15T00:07:49.917Z,91.53
2023-02-15T00:10:18.310Z,91.96
2023-02-15T00:12:46.025Z,91.77
2023-02-15T00:15:14.010Z,92.32
2023-02-15T00:17:42.997Z,93.56
2023-02-15T00:20:11.893Z,91.80
2023-02-15T00:22:39.856Z,92.43
2023-02-15T00:25:08.350Z,91.20
2023-02-15T00:27:36.336Z,91.03
2023-02-15T00:30:04.376Z,91.33
2023-02-15T00:32:32.385Z,91.33
2023-02-15T00:35:01.432Z,91.06
2023-02-15T00:37:29.057Z,89.79
2023-02-15T00:39:56.638Z,90.56
2023-02-15T00:42:24.259Z,90.42
2023-02-15T00:44:51.934Z,89.94
2023-02-15T00:47:19.724Z,90.21
2023-02-15T00:49:47.338Z,91.08
2023-02-15T00:52:16.416Z,92.32
2023-02-15T00:54:44.012Z,91.12
2023-02-15T00:57:11.688Z,90.66
2023-02-15T00:59:39.351Z,90.49
2023-02-15T01:02:06.945Z,90.74
2023-02-15T01:04:34.742Z,91.42
2023-02-15T01:07:03.010Z,91.93
2023-02-15T01:09:32.091Z,92.37
2023-02-15T01:11:59.776Z,92.22
2023-02-15T01:14:27.437Z,91.86
2023-02-15T01:16:55.135Z,92.85
2023-02-15T01:19:22.765Z,92.42
2023-02-15T01:21:50.377Z,91.58
2023-02-15T01:24:18.703Z,91.45
2023-02-15T01:26:47.789Z,91.31
2023-02-15T01:29:15.489Z,90.93
2023-02-15T01:31:43.366Z,90.14
2023-02-15T01:34:11.055Z,90.94
2023-02-15T01:36:38.807Z,90.59
2023-02-15T01:39:06.513Z,90.99
2023-02-15T01:41:34.311Z,90.09
2023-02-15T01:44:05.283Z,91.07
2023-02-15T01:46:42.566Z,91.83
2023-02-15T01:49:15.143Z,92.36
2023-02-15T01:51:45.604Z,91.61
2023-02-15T01:54:20.826Z,91.46
2023-02-15T01:56:49.132Z,91.47
2023-02-15T01:59:23.907Z,92.19
2023-02-15T02:01:53.854Z,91.13
2023-02-15T02:04:27.549Z,91.81
2023-02-15T02:06:56.030Z,92.12
2023-02-15T02:09:23.798Z,92.18
2023-02-15T02:11:52.902Z,91.21
2023-02-15T02:14:23.135Z,93.02
2023-02-15T02:16:58.933Z,92.90
2023-02-15T02:20:14.308Z,91.89
2023-02-15T02:23:04.432Z,92.80
2023-02-15T02:26:18.594Z,92.00
2023-02-15T02:29:19.181Z,93.35
2023-02-15T02:32:18.617Z,92.85
2023-02-15T02:34:53.340Z,92.36
2023-02-15T02:37:26.700Z,92.29
2023-02-15T02:40:05.015Z,91.92
2023-02-15T02:42:40.916Z,92.48
2023-02-15T02:45:12.868Z,92.35
2023-02-15T02:47:45.176Z,91.83
2023-02-15T02:50:18.777Z,93.70
2023-02-15T02:52:48.129Z,93.73
2023-02-15T02:55:20.065Z,93.95
2023-02-15T02:57:55.470Z,93.64
2023-02-15T03:00:25.450Z,93.23
2023-02-15T03:02:59.822Z,93.14
2023-02-15T03:05:32.217Z,93.29
2023-02-15T03:08:07.195Z,93.00
2023-02-15T03:10:38.423Z,93.57
2023-02-15T03:13:06.383Z,93.80
2023-02-15T03:15:56.793Z,93.71
2023-02-15T03:18:27.402Z,94.40
2023-02-15T03:20:58.145Z,94.17
2023-02-15T03:23:29.974Z,94.30
2023-02-15T03:26:01.374Z,94.35
2023-02-15T03:28:33.432Z,94.76
2023-02-15T03:31:05.125Z,94.65
2023-02-15T03:33:33.900Z,94.39
2023-02-15T03:36:06.749Z,94.32
2023-02-15T03:38:42.783Z,94.03
2023-02-15T03:41:12.144Z,93.59
2023-02-15T03:43:51.768Z,93.46
2023-02-15T03:46:28.834Z,94.37
2023-02-15T03:49:00.984Z,92.97
2023-02-15T03:51:36.994Z,93.42
2023-02-15T03:54:09.102Z,93.66
2023-02-15T03:56:38.149Z,93.19
2023-02-15T03:59:23.777Z,94.23
2023-02-15T04:02:01.624Z,94.64
2023-02-15T04:04:35.003Z,92.94
2023-02-15T04:07:05.497Z,93.46
2023-02-15T04:09:50.571Z,94.07
2023-02-15T04:12:18.504Z,93.84
2023-02-15T04:15:03.766Z,93.95
2023-02-15T04:17:31.703Z,93.85
2023-02-15T04:20:16.744Z,94.01
2023-02-15T04:23:03.817Z,93.44
2023-02-15T04:25:31.582Z,93.58
2023-02-15T04:27:59.469Z,92.26
2023-02-15T04:30:28.437Z,93.41
2023-02-15T04:32:58.213Z,92.89
2023-02-15T04:35:26.736Z,92.98
2023-02-15T04:37:56.869Z,93.44
2023-02-15T04:40:24.877Z,93.45
2023-02-15T04:42:53.144Z,94.29
2023-02-15T04:45:20.830Z,94.15
2023-02-15T04:47:48.478Z,94.45
2023-02-15T04:50:16.463Z,93.59
2023-02-15T04:52:44.229Z,93.68
2023-02-15T04:55:13.539Z,93.08
2023-02-15T04:57:41.160Z,92.91
2023-02-15T05:00:10.693Z,93.12
2023-02-15T05:02:38.837Z,92.42
2023-02-15T05:05:07.133Z,92.46
2023-02-15T05:07:34.729Z,93.14
2023-02-15T05:10:02.484Z,94.16
2023-02-15T05:12:31.594Z,94.34
2023-02-15T05:14:59.260Z,93.71
2023-02-15T05:17:26.909Z,94.02
2023-02-15T05:19:54.563Z,93.63
2023-02-15T05:22:22.149Z,93.05
2023-02-15T05:25:07.412Z,93.70
2023-02-15T05:27:54.455Z,93.67
2023-02-15T05:30:22.422Z,93.26
2023-02-15T05:32:50.190Z,94.14
2023-02-15T05:35:18.365Z,92.54
2023-02-15T05:37:46.032Z,93.32
2023-02-15T05:40:14.032Z,93.24
2023-02-15T05:42:43.001Z,93.21
2023-02-15T05:45:11.128Z,93.12
2023-02-15T05:47:39.113Z,92.43
2023-02-15T05:50:08.290Z,91.62
2023-02-15T05:52:36.202Z,92.28
2023-02-15T05:55:05.151Z,91.93
2023-02-15T05:57:32.871Z,92.20
2023-02-15T06:00:02.064Z,91.78
2023-02-15T06:02:29.759Z,92.04
2023-02-15T06:04:57.410Z,93.53
2023-02-15T06:07:25.178Z,93.08
2023-02-15T06:09:52.970Z,92.10
2023-02-15T06:12:20.612Z,91.27
2023-02-15T06:14:48.314Z,92.83
2023-02-15T06:17:17.658Z,92.61
2023-02-15T06:19:45.545Z,92.63
2023-02-15T06:22:14.933Z,91.97
2023-02-15T06:24:44.290Z,92.72
2023-02-15T06:27:11.973Z,93.11
2023-02-15T06:29:39.669Z,91.98
2023-02-15T06:32:10.239Z,92.81
2023-02-15T06:34:39.317Z,92.18
2023-02-15T06:37:08.993Z,92.03
2023-02-15T06:39:36.663Z,91.15
2023-02-15T06:42:04.531Z,91.18
2023-02-15T06:44:32.209Z,90.91
2023-02-15T06:46:59.916Z,91.52
2023-02-15T06:49:27.733Z,90.60
2023-02-15T06:51:56.748Z,91.53
2023-02-15T06:54:24.411Z,91.84
2023-02-15T06:56:52.073Z,89.81
2023-02-15T06:59:19.825Z,91.19
2023-02-15T07:01:47.632Z,90.71
2023-02-15T07:04:15.259Z,90.36
2023-02-15T07:06:42.949Z,89.81
2023-02-15T07:09:13.769Z,90.39
2023-02-15T07:11:58.936Z,90.77
2023-02-15T07:14:28.875Z,90.95
2023-02-15T07:16:56.614Z,90.47
2023-02-15T07:19:24.801Z,91.01
2023-02-15T07:21:52.500Z,91.57
2023-02-15T07:24:21.472Z,91.80
2023-02-15T07:26:49.139Z,91.94
2023-02-15T07:29:17.221Z,91.90
2023-02-15T07:31:46.316Z,91.56
2023-02-15T07:34:14.064Z,92.02
2023-02-15T07:36:41.771Z,91.75
2023-02-15T07:39:09.521Z,91.04
2023-02-15T07:41:38.851Z,91.60
2023-02-15T07:44:06.889Z,91.40
2023-02-15T07:46:34.656Z,90.90
2023-02-15T07:49:02.385Z,92.58
2023-02-15T07:51:30.146Z,91.99
2023-02-15T07:53:57.945Z,90.29
2023-02-15T07:56:25.660Z,90.17
2023-02-15T07:58:56.601Z,89.36
2023-02-15T08:01:27.380Z,89.97
2023-02-15T08:03:56.093Z,89.24
2023-02-15T08:06:25.874Z,89.68
2023-02-15T08:08:54.044Z,89.12
2023-02-15T08:11:37.499Z,88.50
2023-02-15T08:14:08.823Z,89.02
2023-02-15T08:16:38.795Z,89.81
2023-02-15T08:19:08.801Z,89.41
2023-02-15T08:21:38.575Z,91.04
2023-02-15T08:24:07.591Z,91.86
2023-02-15T08:26:35.880Z,92.09
2023-02-15T08:29:09.089Z,91.19
2023-02-15T08:31:39.101Z,90.40
2023-02-15T08:34:07.719Z,91.14
2023-02-15T08:36:35.799Z,91.11
2023-02-15T08:39:07.001Z,91.07
2023-02-15T08:41:36.489Z,91.20
2023-02-15T08:44:06.277Z,90.45
2023-02-15T08:46:35.719Z,90.28
2023-02-15T08:49:05.723Z,90.61
2023-02-15T08:51:35.837Z,89.97
2023-02-15T08:54:07.108Z,89.53
2023-02-15T08:56:37.100Z,91.09
2023-02-15T08:59:07.679Z,90.11
2023-02-15T09:01:37.184Z,90.55
2023-02-15T09:04:09.738Z,90.85
2023-02-15T09:06:38.547Z,90.85
2023-02-15T09:09:06.806Z,90.27
2023-02-15T09:11:36.949Z,90.83
2023-02-15T09:14:06.556Z,90.76
2023-02-15T09:16:36.348Z,89.48
2023-02-15T09:19:06.544Z,90.18
2023-02-15T09:21:35.517Z,89.75
2023-02-15T09:24:06.737Z,89.37
2023-02-15T09:26:37.054Z,89.36
2023-02-15T09:29:05.838Z,89.43
2023-02-15T09:31:35.766Z,90.35
2023-02-15T09:34:03.755Z,90.08
2023-02-15T09:36:35.924Z,89.17
2023-02-15T09:39:09.620Z,88.73
2023-02-15T09:42:04.511Z,88.61
2023-02-15T09:44:48.751Z,88.76
2023-02-15T09:47:44.410Z,89.23
2023-02-15T09:50:22.317Z,89.78
2023-02-15T09:53:12.231Z,89.36
2023-02-15T09:55:53.301Z,88.78
2023-02-15T09:58:31.640Z,89.79
2023-02-15T10:01:07.678Z,90.88
2023-02-15T10:03:44.996Z,88.53
2023-02-15T10:06:33.943Z,88.10
2023-02-15T10:09:37.080Z,86.44
2023-02-15T10:12:36.593Z,87.06
2023-02-15T10:15:28.610Z,86.48
2023-02-15T10:18:13.359Z,85.74
2023-02-15T10:20:51.739Z,86.60
2023-02-15T10:23:37.263Z,86.14
2023-02-15T10:26:15.147Z,85.99
2023-02-15T10:28:48.773Z,86.62
2023-02-15T10:31:27.415Z,86.25
2023-02-15T10:34:15.901Z,86.52
2023-02-15T10:36:59.545Z,86.80
2023-02-15T10:39:32.559Z,86.12
2023-02-15T10:42:10.161Z,85.94
2023-02-15T10:44:52.707Z,85.01
2023-02-15T10:47:45.608Z,84.97
2023-02-15T10:50:27.391Z,85.41
2023-02-15T10:53:09.090Z,84.25
2023-02-15T10:55:48.098Z,85.34
2023-02-15T10:58:26.721Z,85.63
2023-02-15T11:01:02.268Z,85.24
2023-02-15T11:03:41.279Z,84.28
2023-02-15T11:06:11.354Z,84.65
2023-02-15T11:08:44.360Z,83.86
2023-02-15T11:11:17.792Z,85.20
2023-02-15T11:13:52.885Z,84.68
2023-02-15T11:16:24.929Z,85.00
2023-02-15T11:18:58.276Z,84.04
2023-02-15T11:21:30.053Z,84.70
2023-02-15T11:23:57.936Z,85.16
2023-02-15T11:26:31.854Z,84.37
2023-02-15T11:29:09.655Z,84.55
2023-02-15T11:31:45.352Z,84.38
2023-02-15T11:34:20.899Z,83.77
2023-02-15T11:36:53.127Z,84.75
2023-02-15T11:39:24.155Z,85.31
2023-02-15T11:41:57.070Z,84.39
2023-02-15T11:44:33.559Z,84.65
2023-02-15T11:47:02.483Z,84.94
2023-02-15T11:49:32.936Z,84.14
2023-02-15T11:52:04.877Z,83.83
2023-02-15T11:54:34.596Z,85.16
2023-02-15T11:57:13.480Z,84.54
2023-02-15T11:59:46.304Z,83.29
2023-02-15T12:02:19.323Z,83.98
2023-02-15T12:04:53.223Z,83.62
2023-02-15T12:07:26.700Z,83.66
2023-02-15T12:10:02.461Z,83.98
2023-02-15T12:12:32.700Z,83.21
2023-02-15T12:15:03.782Z,83.99
2023-02-15T12:17:34.492Z,83.77
2023-02-15T12:20:04.582Z,84.61
2023-02-15T12:22:36.182Z,85.21
2023-02-15T12:25:13.322Z,85.05
2023-02-15T12:27:45.491Z,84.74
2023-02-15T12:30:24.187Z,83.90
2023-02-15T12:32:57.325Z,83.49
2023-02-15T12:35:30.908Z,84.07
2023-02-15T12:38:04.327Z,83.39
2023-02-15T12:40:34.443Z,84.05
2023-02-15T12:43:08.971Z,84.23
2023-02-15T12:45:39.595Z,83.47
2023-02-15T12:48:17.205Z,83.28
2023-02-15T12:50:46.375Z,83.51
2023-02-15T12:53:20.674Z,83.86
2023-02-15T12:55:54.214Z,83.04
2023-02-15T12:58:26.098Z,83.02
2023-02-15T13:01:16.691Z,83.14
2023-02-15T13:03:59.873Z,85.03
2023-02-15T13:06:31.039Z,82.87
2023-02-15T13:09:07.880Z,83.14
2023-02-15T13:11:36.360Z,83.69
2023-02-15T13:14:17.641Z,83.73
2023-02-15T13:16:49.363Z,82.20
2023-02-15T13:19:19.136Z,82.48
2023-02-15T13:21:50.220Z,83.12
2023-02-15T13:24:24.842Z,83.19
2023-02-15T13:27:01.003Z,84.55
2023-02-15T13:29:39.707Z,83.63
2023-02-15T13:32:29.869Z,82.67
2023-02-15T13:35:00.336Z,84.01
2023-02-15T13:38:01.556Z,83.18
2023-02-15T13:40:37.670Z,83.15
2023-02-15T13:43:17.361Z,83.50
2023-02-15T13:45:57.988Z,85.07
2023-02-15T13:48:48.322Z,84.25
2023-02-15T13:51:24.319Z,84.34
2023-02-15T13:54:26.056Z,83.97
2023-02-15T13:57:07.630Z,84.51
2023-02-15T13:59:48.493Z,84.03
2023-02-15T14:02:46.134Z,83.47
2023-02-15T14:05:28.616Z,84.31
2023-02-15T14:08:03.964Z,84.58
2023-02-15T14:10:40.396Z,84.97
2023-02-15T14:13:38.088Z,84.47
2023-02-15T14:16:13.843Z,84.15
2023-02-15T14:18:47.907Z,84.39
2023-02-15T14:21:22.652Z,83.82
2023-02-15T14:24:03.556Z,83.95
2023-02-15T14:26:42.678Z,83.52
2023-02-15T14:29:22.540Z,84.45
2023-02-15T14:31:55.888Z,83.96
2023-02-15T14:34:29.187Z,84.54
2023-02-15T14:36:59.821Z,83.44
2023-02-15T14:39:56.492Z,82.60
2023-02-15T14:42:27.701Z,82.79
2023-02-15T14:45:03.082Z,82.54
2023-02-15T14:47:37.493Z,82.44
2023-02-15T14:50:38.732Z,82.34
2023-02-15T14:53:40.148Z,82.08
2023-02-15T14:56:19.915Z,82.83
2023-02-15T14:59:19.783Z,82.82
2023-02-15T15:01:58.343Z,83.22
2023-02-15T15:04:31.202Z,84.19
2023-02-15T15:07:12.275Z,84.86
2023-02-15T15:09:43.933Z,85.27
2023-02-15T15:12:34.580Z,85.24
2023-02-15T15:15:02.839Z,84.47
2023-02-15T15:17:56.372Z,84.34
2023-02-15T15:20:51.501Z,86.33
2023-02-15T15:23:50.258Z,86.80
2023-02-15T15:26:41.743Z,87.46
2023-02-15T15:29:09.436Z,87.29
2023-02-15T15:31:46.607Z,86.24
2023-02-15T15:34:24.038Z,85.78
2023-02-15T15:37:25.775Z,85.82
2023-02-15T15:40:32.883Z,84.17
2023-02-15T15:43:50.613Z,84.63
2023-02-15T15:46:51.786Z,83.31
2023-02-15T15:49:22.360Z,84.97
2023-02-15T15:51:51.474Z,83.88
2023-02-15T15:54:22.147Z,85.00
2023-02-15T15:56:54.364Z,84.69
2023-02-15T15:59:26.966Z,86.75
2023-02-15T16:01:54.813Z,85.73
2023-02-15T16:04:28.253Z,84.91
2023-02-15T16:06:56.266Z,84.61
2023-02-15T16:09:28.461Z,84.48
2023-02-15T16:12:01.333Z,85.34
2023-02-15T16:14:38.125Z,85.22
2023-02-15T16:17:10.595Z,85.55
2023-02-15T16:19:42.581Z,86.02
2023-02-15T16:22:16.191Z,85.84
2023-02-15T16:25:11.932Z,84.41
2023-02-15T16:27:42.558Z,87.18
2023-02-15T16:30:27.732Z,87.27
2023-02-15T16:32:57.404Z,88.33
2023-02-15T16:35:26.222Z,87.83
2023-02-15T16:37:53.873Z,87.58
2023-02-15T16:40:41.041Z,88.95
2023-02-15T16:43:16.911Z,87.86
2023-02-15T16:45:46.537Z,88.34
2023-02-15T16:48:21.464Z,87.24
2023-02-15T16:50:53.203Z,86.29
2023-02-15T16:53:25.512Z,87.51
2023-02-15T16:55:56.258Z,87.37
2023-02-15T16:58:30.672Z,86.59
2023-02-15T17:01:02.049Z,85.12
2023-02-15T17:03:30.783Z,85.19
2023-02-15T17:06:00.204Z,86.66
2023-02-15T17:08:32.673Z,86.16
2023-02-15T17:11:12.341Z,86.38
2023-02-15T17:13:40.812Z,85.95
2023-02-15T17:16:25.684Z,87.02
2023-02-15T17:18:54.744Z,87.23
2023-02-15T17:21:27.818Z,87.62
2023-02-15T17:24:01.115Z,88.15
2023-02-15T17:26:31.658Z,88.04
2023-02-15T17:29:01.812Z,89.11
2023-02-15T17:31:34.295Z,89.75
2023-02-15T17:34:03.601Z,89.68
2023-02-15T17:36:33.195Z,90.25
2023-02-15T17:39:05.825Z,91.04
2023-02-15T17:41:35.216Z,90.58
2023-02-15T17:44:04.204Z,91.40
2023-02-15T17:46:36.557Z,91.59
2023-02-15T17:49:05.485Z,91.64
2023-02-15T17:51:36.825Z,91.43
2023-02-15T17:54:23.119Z,92.31
2023-02-15T17:56:50.771Z,93.20
2023-02-15T17:59:20.400Z,92.53
2023-02-15T18:02:08.815Z,92.40
2023-02-15T18:04:55.962Z,91.00
2023-02-15T18:07:41.761Z,91.37
2023-02-15T18:10:34.488Z,91.13
2023-02-15T18:13:02.133Z,91.04
2023-02-15T18:15:30.247Z,91.32
2023-02-15T18:17:59.682Z,91.76
2023-02-15T18:20:37.898Z,91.80
2023-02-15T18:23:07.479Z,91.76
2023-02-15T18:25:35.116Z,91.76
2023-02-15T18:28:02.846Z,91.68
2023-02-15T18:30:30.577Z,91.98
2023-02-15T18:33:01.761Z,92.41
2023-02-15T18:35:35.041Z,93.01
2023-02-15T18:38:03.078Z,92.30
2023-02-15T18:40:31.418Z,92.16
2023-02-15T18:42:59.328Z,91.06
2023-02-15T18:45:32.608Z,92.85
2023-02-15T18:48:01.877Z,91.59
2023-02-15T18:50:33.885Z,92.28
2023-02-15T18:53:04.391Z,91.86
2023-02-15T18:55:33.735Z,93.58
2023-02-15T18:58:02.366Z,92.74
2023-02-15T19:00:33.909Z,92.25
2023-02-15T19:03:04.000Z,92.29
2023-02-15T19:05:33.927Z,92.25
2023-02-15T19:08:03.375Z,93.15
2023-02-15T19:10:33.964Z,92.35
2023-02-15T19:13:01.586Z,92.96
2023-02-15T19:15:31.534Z,93.04
2023-02-15T19:17:59.292Z,92.82
2023-02-15T19:20:38.788Z,93.31
2023-02-15T19:28:05.775Z,92.89
2023-02-15T19:35:09.837Z,91.77
2023-02-15T19:38:58.213Z,92.52
2023-02-15T19:41:35.510Z,91.33
2023-02-15T19:44:12.108Z,91.75
2023-02-15T19:46:45.441Z,92.32
2023-02-15T19:49:40.525Z,92.74
2023-02-15T19:52:30.242Z,92.24
2023-02-15T19:55:14.216Z,92.37
2023-02-15T19:57:48.918Z,92.50
2023-02-15T20:00:24.644Z,92.74
2023-02-15T20:03:43.866Z,92.94
2023-02-15T20:29:26.412Z,91.98
2023-02-15T20:32:49.199Z,92.52
2023-02-15T20:36:01.009Z,92.30
2023-02-15T20:47:05.930Z,93.49
2023-02-15T20:55:39.764Z,93.09
2023-02-15T20:58:47.152Z,92.75
2023-02-15T21:05:50.797Z,93.40
2023-02-15T21:08:21.223Z,93.35
2023-02-15T21:10:52.961Z,91.83
2023-02-15T21:13:26.515Z,94.27
2023-02-15T21:15:56.530Z,92.84
2023-02-15T21:18:27.070Z,93.32
2023-02-15T21:20:56.913Z,91.44
2023-02-15T21:23:27.988Z,91.98
2023-02-15T21:25:57.716Z,93.61
2023-02-15T21:28:33.661Z,91.37
2023-02-15T21:31:01.489Z,91.67
2023-02-15T21:33:29.628Z,90.11
2023-02-15T21:35:59.024Z,91.06
2023-02-15T21:38:30.984Z,91.44
2023-02-15T21:41:20.267Z,92.26
2023-02-15T21:44:05.412Z,92.46
2023-02-15T21:46:50.412Z,92.47
2023-02-15T21:49:18.156Z,93.19
2023-02-15T21:52:03.631Z,93.19
2023-02-15T21:54:31.286Z,93.26
2023-02-15T21:57:00.812Z,93.50
2023-02-15T21:59:28.662Z,93.51
2023-02-15T22:01:56.700Z,94.31
2023-02-15T22:04:26.800Z,93.88
2023-02-15T22:06:55.066Z,94.01
2023-02-15T22:09:24.766Z,94.27
2023-02-15T22:11:53.482Z,94.34
2023-02-15T22:14:37.349Z,94.36
2023-02-15T22:17:11.205Z,94.68
2023-02-15T22:19:38.904Z,93.76
2023-02-15T22:22:06.558Z,93.56
2023-02-15T22:24:34.206Z,93.66
2023-02-15T22:27:01.985Z,93.82
2023-02-15T22:29:31.064Z,93.32
2023-02-15T22:31:59.412Z,93.55
2023-02-15T22:34:29.482Z,93.67
2023-02-15T22:36:57.812Z,93.65
2023-02-15T22:39:26.228Z,93.91
2023-02-15T22:41:54.630Z,93.47
2023-02-15T22:44:26.597Z,93.86
2023-02-15T22:46:55.934Z,93.90
2023-02-15T22:49:23.587Z,94.29
2023-02-15T22:51:52.255Z,94.82
2023-02-15T22:54:20.535Z,94.28
2023-02-15T22:56:51.238Z,94.03
2023-02-15T22:59:23.865Z,94.35
2023-02-15T23:01:51.755Z,93.83
2023-02-15T23:04:22.676Z,93.27
2023-02-15T23:06:51.513Z,93.14
2023-02-15T23:09:19.157Z,93.22
2023-02-15T23:11:47.086Z,93.69
2023-02-15T23:14:27.320Z,93.08
2023-02-15T23:16:55.107Z,92.88
2023-02-15T23:19:24.247Z,93.98
2023-02-15T23:21:52.087Z,93.38
2023-02-15T23:24:22.583Z,93.82
2023-02-15T23:26:51.637Z,93.69
2023-02-15T23:29:22.122Z,93.00
2023-02-15T23:31:51.662Z,93.56
2023-02-15T23:34:21.921Z,93.03
2023-02-15T23:36:51.189Z,92.99
2023-02-15T23:39:39.012Z,92.85
2023-02-15T23:42:10.774Z,93.14
2023-02-15T23:44:39.400Z,94.46
2023-02-15T23:47:19.143Z,95.00
2023-02-15T23:49:46.992Z,93.98
2023-02-15T23:52:16.093Z,93.14
2023-02-15T23:54:43.691Z,94.81
2023-02-15T23:57:13.390Z,93.60
2023-02-15T23:59:44.710Z,93.44
